createdAt,value
2023-02-14T00:00:25.295Z,15.00
2023-02-14T00:03:15.023Z,18.00
2023-02-14T00:06:10.680Z,16.00
2023-02-14T00:09:20.435Z,14.50
2023-02-14T00:17:04.583Z,15.00
2023-02-14T00:20:12.633Z,12.00
2023-02-14T00:22:40.821Z,14.00
2023-02-14T00:25:08.854Z,18.00
2023-02-14T00:27:36.925Z,16.00
2023-02-14T00:31:05.318Z,16.50
2023-02-14T00:33:40.758Z,17.00
2023-02-14T00:36:10.800Z,18.00
2023-02-14T00:38:39.982Z,19.50
2023-02-14T00:41:29.298Z,19.00
2023-02-14T00:43:58.195Z,18.00
2023-02-14T00:46:26.483Z,20.50
2023-02-14T00:48:54.924Z,19.00
2023-02-14T00:51:24.247Z,22.00
2023-02-14T00:56:20.963Z,22.00
2023-02-14T00:58:49.406Z,20.00
2023-02-14T01:01:58.658Z,14.00
2023-02-14T01:04:26.753Z,23.00
2023-02-14T01:06:54.907Z,17.00
2023-02-14T01:09:22.914Z,15.50
2023-02-14T01:11:51.089Z,20.00
2023-02-14T01:14:19.156Z,16.00
2023-02-14T01:17:47.157Z,17.00
2023-02-14T01:21:16.399Z,11.00
2023-02-14T01:24:26.713Z,14.00
2023-02-14T01:29:23.260Z,16.00
2023-02-14T01:32:53.596Z,11.00
2023-02-14T01:36:23.905Z,15.00
2023-02-14T01:39:15.332Z,10.00
2023-02-14T01:42:46.149Z,14.00
2023-02-14T01:45:47.307Z,12.00
2023-02-14T01:48:30.799Z,10.00
2023-02-14T01:51:05.612Z,15.00
2023-02-14T01:57:06.776Z,15.00
2023-02-14T01:59:39.797Z,15.00
2023-02-14T02:03:07.911Z,16.00
2023-02-14T02:05:40.577Z,12.00
2023-02-14T02:08:09.018Z,11.50
2023-02-14T02:10:36.984Z,17.50
2023-02-14T02:14:07.852Z,16.00
2023-02-14T02:17:06.762Z,18.00
2023-02-14T02:21:03.209Z,13.00
2023-02-14T02:25:03.567Z,12.00
2023-02-14T02:28:50.904Z,12.00
2023-02-14T02:31:27.878Z,13.00
2023-02-14T02:34:29.751Z,14.50
2023-02-14T02:37:50.479Z,11.00
2023-02-14T02:40:47.288Z,12.00
2023-02-14T02:43:42.365Z,15.00
2023-02-14T02:46:49.809Z,19.00
2023-02-14T02:50:04.483Z,16.00
2023-02-14T02:56:16.596Z,11.00
2023-02-14T02:59:59.907Z,14.00
2023-02-14T03:03:24.729Z,15.50
2023-02-14T03:06:50.520Z,10.00
2023-02-14T03:09:59.280Z,15.00
2023-02-14T03:13:42.107Z,14.00
2023-02-14T03:16:32.264Z,12.00
2023-02-14T03:23:16.643Z,12.00
2023-02-14T03:26:02.263Z,11.50
2023-02-14T03:28:30.275Z,11.00
2023-02-14T03:31:18.185Z,10.00
2023-02-14T03:34:21.514Z,11.00
2023-02-14T03:37:03.653Z,12.00
2023-02-14T03:39:43.998Z,11.00
2023-02-14T03:42:35.208Z,13.00
2023-02-14T03:46:04.568Z,12.00
2023-02-14T03:49:56.603Z,11.00
2023-02-14T03:53:01.924Z,10.50
2023-02-14T03:56:23.854Z,11.00
2023-02-14T03:59:54.294Z,12.00
2023-02-14T04:03:23.851Z,8.00
2023-02-14T04:06:51.828Z,10.50
2023-02-14T04:09:21.943Z,10.50
2023-02-14T04:11:50.668Z,10.00
2023-02-14T04:15:18.806Z,12.00
2023-02-14T04:18:46.508Z,9.00
2023-02-14T04:24:59.204Z,7.00
2023-02-14T04:28:27.397Z,10.00
2023-02-14T04:31:36.047Z,10.33
2023-02-14T04:34:04.292Z,9.00
2023-02-14T04:36:32.464Z,7.00
2023-02-14T04:39:00.396Z,11.00
2023-02-14T04:41:29.731Z,14.50
2023-02-14T04:44:02.018Z,11.00
2023-02-14T04:46:30.156Z,11.50
2023-02-14T04:48:58.413Z,14.00
2023-02-14T04:51:27.638Z,14.00
2023-02-14T04:53:55.794Z,14.33
2023-02-14T04:56:26.215Z,14.50
2023-02-14T04:58:55.100Z,13.50
2023-02-14T05:01:23.108Z,15.50
2023-02-14T05:03:51.307Z,13.00
2023-02-14T05:06:19.326Z,11.00
2023-02-14T05:09:47.125Z,13.00
2023-02-14T05:13:15.667Z,14.00
2023-02-14T05:16:25.857Z,12.50
2023-02-14T05:19:42.443Z,13.00
2023-02-14T05:23:21.287Z,13.00
2023-02-14T05:27:09.601Z,15.00
2023-02-14T05:30:38.155Z,19.00
2023-02-14T05:34:06.793Z,15.00
2023-02-14T05:37:49.633Z,15.00
2023-02-14T05:41:00.230Z,18.00
2023-02-14T05:44:20.634Z,18.00
2023-02-14T05:46:49.075Z,15.00
2023-02-14T05:53:14.026Z,15.50
2023-02-14T05:55:42.113Z,16.50
2023-02-14T05:58:10.292Z,18.00
2023-02-14T06:01:18.477Z,17.00
2023-02-14T06:04:27.641Z,15.50
2023-02-14T06:07:35.916Z,15.00
2023-02-14T06:10:51.540Z,14.50
2023-02-14T06:14:00.955Z,14.00
2023-02-14T06:16:29.096Z,11.00
2023-02-14T06:19:56.988Z,12.00
2023-02-14T06:22:45.280Z,14.00
2023-02-14T06:25:13.593Z,17.00
2023-02-14T06:27:42.149Z,14.50
2023-02-14T06:30:39.534Z,16.50
2023-02-14T06:33:07.748Z,15.00
2023-02-14T06:35:35.727Z,5.50
2023-02-14T06:38:03.893Z,19.00
2023-02-14T06:41:27.445Z,17.00
2023-02-14T06:44:37.446Z,17.00
2023-02-14T06:48:01.014Z,18.00
2023-02-14T06:51:31.086Z,15.50
2023-02-14T06:54:01.165Z,15.00
2023-02-14T06:56:29.152Z,14.50
2023-02-14T06:58:57.090Z,18.00
2023-02-14T07:02:25.246Z,14.00
2023-02-14T07:05:29.806Z,18.00
2023-02-14T07:07:58.094Z,15.00
2023-02-14T07:11:26.162Z,14.00
2023-02-14T07:16:42.889Z,15.00
2023-02-14T07:19:10.996Z,14.00
2023-02-14T07:22:38.952Z,15.50
2023-02-14T07:26:22.937Z,14.00
2023-02-14T07:29:06.408Z,13.00
2023-02-14T07:32:15.205Z,15.00
2023-02-14T07:34:43.715Z,14.00
2023-02-14T07:37:11.681Z,14.00
2023-02-14T07:39:40.308Z,16.00
2023-02-14T07:43:08.256Z,15.00
2023-02-14T07:45:37.531Z,22.00
2023-02-14T07:48:06.071Z,23.50
2023-02-14T07:50:56.696Z,12.00
2023-02-14T07:53:25.323Z,25.00
2023-02-14T07:55:53.742Z,27.00
2023-02-14T07:58:22.714Z,21.00
2023-02-14T08:00:51.516Z,21.00
2023-02-14T08:03:59.944Z,17.00
2023-02-14T08:06:48.215Z,21.00
2023-02-14T08:09:24.792Z,16.50
2023-02-14T08:12:38.804Z,21.00
2023-02-14T08:15:53.429Z,15.00
2023-02-14T08:18:27.259Z,17.00
2023-02-14T08:20:55.343Z,15.00
2023-02-14T08:23:39.365Z,19.00
2023-02-14T08:26:07.732Z,16.00
2023-02-14T08:28:35.807Z,21.00
2023-02-14T08:31:04.787Z,20.00
2023-02-14T08:34:10.722Z,16.00
2023-02-14T08:37:38.818Z,13.00
2023-02-14T08:40:07.674Z,16.00
2023-02-14T08:42:35.724Z,16.00
2023-02-14T08:45:04.532Z,15.00
2023-02-14T08:47:38.625Z,16.00
2023-02-14T08:50:11.814Z,17.50
2023-02-14T08:53:39.647Z,16.00
2023-02-14T08:56:13.471Z,17.00
2023-02-14T08:58:41.568Z,20.00
2023-02-14T09:01:11.661Z,11.00
2023-02-14T09:04:05.513Z,16.00
2023-02-14T09:06:33.688Z,16.00
2023-02-14T09:09:02.708Z,15.00
2023-02-14T09:11:30.838Z,20.00
2023-02-14T09:14:58.706Z,17.00
2023-02-14T09:18:25.708Z,12.00
2023-02-14T09:20:54.040Z,12.00
2023-02-14T09:23:22.198Z,16.00
2023-02-14T09:26:11.858Z,14.50
2023-02-14T09:28:40.408Z,14.00
2023-02-14T09:31:31.947Z,11.00
2023-02-14T09:34:39.409Z,10.50
2023-02-14T09:37:47.088Z,24.00
2023-02-14T09:40:33.438Z,19.50
2023-02-14T09:44:23.036Z,17.50
2023-02-14T09:47:37.932Z,20.50
2023-02-14T09:52:35.561Z,17.00
2023-02-14T09:55:04.452Z,13.00
2023-02-14T09:57:45.440Z,12.00
2023-02-14T10:00:36.412Z,10.00
2023-02-14T10:03:29.798Z,13.00
2023-02-14T10:06:58.732Z,13.00
2023-02-14T10:09:40.787Z,11.00
2023-02-14T10:12:54.094Z,12.00
2023-02-14T10:16:05.671Z,12.00
2023-02-14T10:19:03.182Z,17.50
2023-02-14T10:21:41.753Z,12.00
2023-02-14T10:24:18.996Z,6.00
2023-02-14T10:27:34.411Z,10.00
2023-02-14T10:32:43.948Z,8.00
2023-02-14T10:38:26.887Z,12.50
2023-02-14T10:41:10.291Z,10.00
2023-02-14T10:43:41.120Z,9.50
2023-02-14T10:46:21.715Z,6.00
2023-02-14T10:49:32.989Z,7.00
2023-02-14T10:52:22.600Z,8.00
2023-02-14T10:55:00.658Z,9.00
2023-02-14T10:58:01.369Z,11.00
2023-02-14T11:00:41.219Z,17.50
2023-02-14T11:03:10.996Z,12.50
2023-02-14T11:05:47.569Z,12.00
2023-02-14T11:08:59.613Z,13.00
2023-02-14T11:11:35.264Z,12.00
2023-02-14T11:14:22.413Z,12.00
2023-02-14T11:17:46.051Z,16.00
2023-02-14T11:20:23.056Z,13.00
2023-02-14T11:22:51.684Z,17.50
2023-02-14T11:25:26.204Z,18.50
2023-02-14T11:28:47.812Z,17.50
2023-02-14T11:31:34.707Z,13.67
2023-02-14T11:34:06.986Z,11.00
2023-02-14T11:36:42.146Z,10.50
2023-02-14T11:40:25.166Z,12.00
2023-02-14T11:43:37.210Z,15.00
2023-02-14T11:46:47.720Z,13.00
2023-02-14T11:52:11.863Z,16.00
2023-02-14T11:54:41.938Z,9.00
2023-02-14T11:57:58.158Z,10.50
2023-02-14T12:00:56.505Z,10.00
2023-02-14T12:03:26.427Z,6.00
2023-02-14T12:06:00.518Z,8.00
2023-02-14T12:08:32.090Z,9.50
2023-02-14T12:11:20.535Z,10.00
2023-02-14T12:13:56.180Z,9.00
2023-02-14T12:16:35.352Z,10.50
2023-02-14T12:20:03.146Z,9.00
2023-02-14T12:25:25.127Z,13.50
2023-02-14T12:28:06.184Z,15.50
2023-02-14T12:30:35.439Z,13.50
2023-02-14T12:33:06.093Z,13.00
2023-02-14T12:35:33.943Z,13.00
2023-02-14T12:38:08.053Z,11.00
2023-02-14T12:41:34.241Z,9.00
2023-02-14T12:44:50.436Z,9.00
2023-02-14T12:47:40.174Z,6.00
2023-02-14T12:50:29.743Z,6.00
2023-02-14T12:53:39.780Z,7.00
2023-02-14T12:56:28.673Z,13.00
2023-02-14T12:59:40.965Z,14.00
2023-02-14T13:02:28.425Z,13.00
2023-02-14T13:04:59.995Z,13.00
2023-02-14T13:07:49.761Z,16.00
2023-02-14T13:10:40.912Z,16.00
2023-02-14T13:13:41.728Z,13.00
2023-02-14T13:16:31.554Z,14.00
2023-02-14T13:19:12.290Z,10.00
2023-02-14T13:21:43.062Z,13.00
2023-02-14T13:24:20.660Z,11.00
2023-02-14T13:26:55.486Z,11.00
2023-02-14T13:29:27.523Z,12.00
2023-02-14T13:32:39.045Z,12.00
2023-02-14T13:35:09.439Z,13.00
2023-02-14T13:38:38.094Z,13.00
2023-02-14T13:41:46.259Z,18.00
2023-02-14T13:44:46.724Z,13.00
2023-02-14T13:47:25.547Z,10.00
2023-02-14T13:49:58.384Z,13.00
2023-02-14T13:52:49.129Z,16.00
2023-02-14T13:55:27.381Z,14.50
2023-02-14T14:00:40.743Z,7.00
2023-02-14T14:05:48.438Z,12.00
2023-02-14T14:08:22.550Z,9.00
2023-02-14T14:10:50.434Z,11.00
2023-02-14T14:14:15.540Z,12.00
2023-02-14T14:17:20.662Z,16.50
2023-02-14T14:19:50.498Z,17.00
2023-02-14T14:22:47.035Z,15.00
2023-02-14T14:25:31.197Z,19.00
2023-02-14T14:28:00.487Z,17.50
2023-02-14T14:30:33.437Z,13.50
2023-02-14T14:33:50.413Z,13.00
2023-02-14T14:36:23.400Z,13.50
2023-02-14T14:38:54.691Z,16.00
2023-02-14T14:41:31.783Z,15.00
2023-02-14T14:44:20.199Z,15.00
2023-02-14T14:46:48.946Z,15.00
2023-02-14T14:49:17.322Z,10.00
2023-02-14T14:51:45.810Z,11.00
2023-02-14T14:54:21.623Z,16.00
2023-02-14T14:56:59.575Z,22.00
2023-02-14T14:59:36.092Z,24.00
2023-02-14T15:02:20.798Z,27.00
2023-02-14T15:05:54.619Z,21.50
2023-02-14T15:08:48.681Z,22.00
2023-02-14T15:11:47.648Z,15.00
2023-02-14T15:17:07.327Z,19.00
2023-02-14T15:19:44.343Z,24.00
2023-02-14T15:22:44.495Z,18.00
2023-02-14T15:28:01.172Z,11.50
2023-02-14T15:30:34.400Z,15.00
2023-02-14T15:33:04.446Z,15.00
2023-02-14T15:35:35.218Z,14.00
2023-02-14T15:38:07.010Z,16.00
2023-02-14T15:40:35.942Z,16.00
2023-02-14T15:43:31.073Z,20.00
2023-02-14T15:46:37.325Z,16.00
2023-02-14T15:49:09.622Z,18.00
2023-02-14T15:51:39.376Z,19.00
2023-02-14T15:54:49.347Z,21.00
2023-02-14T15:57:25.232Z,23.50
2023-02-14T15:59:54.266Z,21.00
2023-02-14T16:02:37.982Z,19.00
2023-02-14T16:05:46.638Z,25.00
2023-02-14T16:11:04.236Z,21.00
2023-02-14T16:13:35.774Z,2.00
2023-02-14T16:16:21.771Z,12.00
2023-02-14T16:18:53.010Z,16.00
2023-02-14T16:21:25.387Z,17.00
2023-02-14T16:24:06.620Z,18.00
2023-02-14T16:27:14.830Z,12.00
2023-02-14T16:29:45.154Z,15.00
2023-02-14T16:32:22.052Z,13.50
2023-02-14T16:34:50.817Z,14.00
2023-02-14T16:37:30.274Z,14.00
2023-02-14T16:40:00.725Z,17.00
2023-02-14T16:42:29.492Z,19.00
2023-02-14T16:47:27.880Z,21.00
2023-02-14T16:49:56.120Z,22.00
2023-02-14T16:52:28.750Z,21.00
2023-02-14T16:54:57.522Z,26.00
2023-02-14T16:58:08.616Z,24.00
2023-02-14T17:00:39.630Z,23.00
2023-02-14T17:03:11.711Z,19.00
2023-02-14T17:06:17.714Z,18.50
2023-02-14T17:08:47.700Z,17.00
2023-02-14T17:11:16.091Z,15.00
2023-02-14T17:13:46.909Z,14.00
2023-02-14T17:16:22.873Z,14.00
2023-02-14T17:18:52.485Z,16.00
2023-02-14T17:21:22.996Z,18.50
2023-02-14T17:23:51.015Z,24.00
2023-02-14T17:26:21.139Z,26.00
2023-02-14T17:28:49.163Z,24.00
2023-02-14T17:31:18.271Z,25.00
2023-02-14T17:33:46.403Z,24.00
2023-02-14T17:36:54.898Z,21.00
2023-02-14T17:39:23.941Z,19.50
2023-02-14T17:41:53.255Z,24.00
2023-02-14T17:47:36.653Z,25.00
2023-02-14T17:50:05.176Z,27.50
2023-02-14T17:52:33.439Z,26.00
2023-02-14T17:55:01.606Z,28.00
2023-02-14T17:57:29.740Z,27.00
2023-02-14T17:59:58.959Z,36.50
2023-02-14T18:02:27.282Z,35.00
2023-02-14T18:04:55.674Z,29.50
2023-02-14T18:08:03.546Z,27.00
2023-02-14T18:10:39.789Z,19.50
2023-02-14T18:13:08.763Z,22.00
2023-02-14T18:15:36.813Z,22.00
2023-02-14T18:19:06.634Z,24.00
2023-02-14T18:21:36.965Z,19.00
2023-02-14T18:24:05.098Z,16.00
2023-02-14T18:26:33.612Z,15.00
2023-02-14T18:30:02.865Z,21.00
2023-02-14T18:32:38.708Z,23.00
2023-02-14T18:35:06.828Z,26.50
2023-02-14T18:38:34.555Z,27.50
2023-02-14T18:44:33.486Z,28.00
2023-02-14T18:47:02.871Z,26.00
2023-02-14T18:49:51.053Z,24.00
2023-02-14T18:52:19.106Z,22.50
2023-02-14T18:54:47.065Z,24.00
2023-02-14T18:57:16.092Z,27.00
2023-02-14T18:59:45.350Z,27.00
2023-02-14T19:02:14.172Z,23.50
2023-02-14T19:04:42.366Z,20.00
2023-02-14T19:07:34.028Z,17.00
2023-02-14T19:10:04.734Z,18.00
2023-02-14T19:13:13.039Z,17.00
2023-02-14T19:15:41.301Z,19.50
2023-02-14T19:18:09.289Z,16.00
2023-02-14T19:20:37.336Z,14.50
2023-02-14T19:23:05.655Z,19.00
2023-02-14T19:25:34.693Z,15.00
2023-02-14T19:28:02.811Z,13.50
2023-02-14T19:30:30.942Z,20.00
2023-02-14T19:32:59.700Z,13.00
2023-02-14T19:35:27.775Z,13.00
2023-02-14T19:37:55.822Z,16.50
2023-02-14T19:40:23.813Z,19.00
2023-02-14T19:42:52.162Z,16.00
2023-02-14T19:45:20.262Z,16.00
2023-02-14T19:47:49.579Z,12.00
2023-02-14T19:50:19.413Z,11.00
2023-02-14T19:52:48.860Z,15.00
2023-02-14T19:55:22.850Z,17.00
2023-02-14T19:57:50.970Z,16.00
2023-02-14T20:00:21.111Z,21.00
2023-02-14T20:02:49.130Z,23.50
2023-02-14T20:05:18.637Z,22.00
2023-02-14T20:07:49.364Z,24.00
2023-02-14T20:10:17.719Z,25.00
2023-02-14T20:15:14.035Z,26.00
2023-02-14T20:17:42.038Z,25.00
2023-02-14T20:20:13.872Z,25.00
2023-02-14T20:22:42.276Z,28.00
2023-02-14T20:25:10.406Z,23.00
2023-02-14T20:27:38.608Z,23.50
2023-02-14T20:30:07.810Z,20.00
2023-02-14T20:32:36.040Z,23.00
2023-02-14T20:35:04.258Z,21.00
2023-02-14T20:37:52.707Z,23.00
2023-02-14T20:40:20.629Z,21.00
2023-02-14T20:42:49.084Z,17.00
2023-02-14T20:45:17.731Z,15.00
2023-02-14T20:47:49.188Z,16.00
2023-02-14T20:50:37.296Z,20.00
2023-02-14T20:53:05.389Z,22.00
2023-02-14T20:55:33.496Z,16.00
2023-02-14T20:58:02.580Z,22.00
2023-02-14T21:00:30.798Z,18.00
2023-02-14T21:02:59.989Z,17.00
2023-02-14T21:05:28.928Z,17.00
2023-02-14T21:07:56.887Z,16.00
2023-02-14T21:10:25.380Z,15.00
2023-02-14T21:12:54.160Z,18.00
2023-02-14T21:15:22.222Z,16.50
2023-02-14T21:17:50.321Z,16.00
2023-02-14T21:20:19.705Z,19.00
2023-02-14T21:22:47.749Z,16.50
2023-02-14T21:25:15.875Z,17.50
2023-02-14T21:27:43.876Z,15.00
2023-02-14T21:30:13.399Z,12.00
2023-02-14T21:32:41.715Z,12.00
2023-02-14T21:35:10.396Z,13.00
2023-02-14T21:40:07.725Z,20.00
2023-02-14T21:45:42.198Z,20.00
2023-02-14T21:48:29.058Z,25.00
2023-02-14T21:50:57.070Z,25.00
2023-02-14T21:53:25.121Z,24.00
2023-02-14T21:55:53.018Z,23.00
2023-02-14T21:58:20.989Z,21.00
2023-02-14T22:00:49.106Z,21.00
2023-02-14T22:03:17.108Z,23.00
2023-02-14T22:05:45.053Z,20.00
2023-02-14T22:08:13.073Z,17.00
2023-02-14T22:10:41.098Z,21.00
2023-02-14T22:13:10.183Z,18.50
2023-02-14T22:15:41.384Z,19.50
2023-02-14T22:18:09.313Z,16.00
2023-02-14T22:20:37.497Z,13.00
2023-02-14T22:26:19.933Z,12.00
2023-02-14T22:28:49.129Z,15.50
2023-02-14T22:31:18.889Z,16.00
2023-02-14T22:33:48.874Z,16.00
2023-02-14T22:36:17.409Z,11.00
2023-02-14T22:38:45.521Z,12.50
2023-02-14T22:41:18.902Z,10.00
2023-02-14T22:44:06.919Z,10.50
2023-02-14T22:46:36.939Z,12.00
2023-02-14T22:49:06.580Z,10.00
2023-02-14T22:51:37.490Z,10.00
2023-02-14T22:54:23.356Z,9.00
2023-02-14T22:56:51.596Z,7.00
2023-02-14T22:59:25.351Z,5.00
2023-02-14T23:04:44.862Z,13.00
2023-02-14T23:09:40.723Z,11.00
2023-02-14T23:12:28.862Z,12.00
2023-02-14T23:15:16.673Z,15.00
2023-02-14T23:18:06.517Z,15.00
2023-02-14T23:20:53.161Z,10.00
2023-02-14T23:23:21.308Z,14.00
2023-02-14T23:25:49.866Z,9.00
2023-02-14T23:28:18.221Z,12.00
2023-02-14T23:30:46.254Z,8.00
2023-02-14T23:33:14.448Z,9.00
2023-02-14T23:35:42.421Z,8.00
2023-02-14T23:38:10.403Z,7.00
2023-02-14T23:40:57.010Z,6.50
2023-02-14T23:43:25.191Z,7.00
2023-02-14T23:45:53.233Z,7.00
2023-02-14T23:48:21.239Z,6.00
2023-02-14T23:50:49.488Z,7.00
2023-02-14T23:53:17.777Z,6.50
2023-02-14T23:56:05.817Z,7.00
2023-02-14T23:58:33.810Z,7.00
